sensor_id;sensor_type;location;lat;lon;timestamp;P1;durP1;ratioP1;P2;durP2;ratioP2
48911;SDS011;34722;52.108;5.044;2023-07-28T01:39:06;50.42;;;17.80;;
48911;SDS011;34722;52.108;5.044;2023-07-28T01:41:31;38.83;;;16.30;;
48911;SDS011;34722;52.108;5.044;2023-07-28T01:43:57;40.20;;;17.60;;
48911;SDS011;34722;52.108;5.044;2023-07-28T01:46:23;39.90;;;17.90;;
48911;SDS011;34722;52.108;5.044;2023-07-28T01:48:49;40.08;;;18.30;;
48911;SDS011;34722;52.108;5.044;2023-07-28T01:51:14;48.72;;;20.20;;
48911;SDS011;34722;52.108;5.044;2023-07-28T01:53:43;41.38;;;16.92;;
48911;SDS011;34722;52.108;5.044;2023-07-28T01:56:09;44.05;;;18.92;;
48911;SDS011;34722;52.108;5.044;2023-07-28T01:58:35;41.38;;;19.10;;
48911;SDS011;34722;52.108;5.044;2023-07-28T02:01:00;40.30;;;18.30;;
48911;SDS011;34722;52.108;5.044;2023-07-28T02:03:29;34.97;;;16.90;;
48911;SDS011;34722;52.108;5.044;2023-07-28T02:05:55;38.50;;;18.42;;
48911;SDS011;34722;52.108;5.044;2023-07-28T02:08:20;52.38;;;20.42;;
48911;SDS011;34722;52.108;5.044;2023-07-28T02:10:46;38.65;;;19.80;;
48911;SDS011;34722;52.108;5.044;2023-07-28T02:13:15;37.33;;;17.98;;
48911;SDS011;34722;52.108;5.044;2023-07-28T02:15:41;38.60;;;18.75;;
48911;SDS011;34722;52.108;5.044;2023-07-28T02:18:07;39.55;;;19.70;;
48911;SDS011;34722;52.108;5.044;2023-07-28T02:20:32;42.47;;;19.73;;
48911;SDS011;34722;52.108;5.044;2023-07-28T02:23:00;57.00;;;23.10;;
48911;SDS011;34722;52.108;5.044;2023-07-28T02:25:27;48.10;;;19.48;;
48911;SDS011;34722;52.108;5.044;2023-07-28T02:27:52;50.08;;;20.55;;
48911;SDS011;34722;52.108;5.044;2023-07-28T02:30:18;47.10;;;19.63;;
48911;SDS011;34722;52.108;5.044;2023-07-28T02:32:44;44.25;;;19.60;;
48911;SDS011;34722;52.108;5.044;2023-07-28T02:35:10;45.83;;;19.60;;
48911;SDS011;34722;52.108;5.044;2023-07-28T02:37:36;42.05;;;18.58;;
48911;SDS011;34722;52.108;5.044;2023-07-28T02:40:01;41.67;;;18.05;;
48911;SDS011;34722;52.108;5.044;2023-07-28T02:42:28;38.47;;;18.00;;
48911;SDS011;34722;52.108;5.044;2023-07-28T02:44:54;34.15;;;16.92;;
48911;SDS011;34722;52.108;5.044;2023-07-28T02:47:22;43.03;;;18.25;;
48911;SDS011;34722;52.108;5.044;2023-07-28T02:49:55;38.67;;;19.75;;
48911;SDS011;34722;52.108;5.044;2023-07-28T02:52:22;52.30;;;18.38;;
48911;SDS011;34722;52.108;5.044;2023-07-28T02:54:48;38.10;;;17.38;;
48911;SDS011;34722;52.108;5.044;2023-07-28T02:57:15;45.42;;;18.25;;
48911;SDS011;34722;52.108;5.044;2023-07-28T02:59:43;44.15;;;18.17;;
48911;SDS011;34722;52.108;5.044;2023-07-28T03:02:09;37.80;;;16.80;;
48911;SDS011;34722;52.108;5.044;2023-07-28T03:04:34;40.58;;;17.90;;
48911;SDS011;34722;52.108;5.044;2023-07-28T03:07:00;44.60;;;18.42;;
48911;SDS011;34722;52.108;5.044;2023-07-28T03:09:29;45.00;;;17.67;;
48911;SDS011;34722;52.108;5.044;2023-07-28T03:11:54;37.28;;;17.13;;
48911;SDS011;34722;52.108;5.044;2023-07-28T03:14:20;38.88;;;18.00;;
48911;SDS011;34722;52.108;5.044;2023-07-28T03:16:49;48.10;;;17.23;;
48911;SDS011;34722;52.108;5.044;2023-07-28T03:19:18;48.50;;;17.98;;
48911;SDS011;34722;52.108;5.044;2023-07-28T03:21:46;44.35;;;18.65;;
48911;SDS011;34722;52.108;5.044;2023-07-28T03:24:20;46.17;;;18.20;;
48911;SDS011;34722;52.108;5.044;2023-07-28T03:29:11;51.20;;;18.73;;
48911;SDS011;34722;52.108;5.044;2023-07-28T03:31:46;44.78;;;17.98;;
48911;SDS011;34722;52.108;5.044;2023-07-28T03:34:14;48.55;;;18.58;;
48911;SDS011;34722;52.108;5.044;2023-07-28T03:37:34;42.25;;;17.95;;
48911;SDS011;34722;52.108;5.044;2023-07-28T07:27:54;34.30;;;16.88;;
48911;SDS011;34722;52.108;5.044;2023-07-28T07:30:42;38.03;;;18.55;;
48911;SDS011;34722;52.108;5.044;2023-07-28T07:33:31;34.95;;;17.13;;
48911;SDS011;34722;52.108;5.044;2023-07-28T07:39:38;35.80;;;16.15;;
48911;SDS011;34722;52.108;5.044;2023-07-28T07:42:06;29.42;;;16.00;;
48911;SDS011;34722;52.108;5.044;2023-07-28T07:44:34;27.05;;;14.73;;
48911;SDS011;34722;52.108;5.044;2023-07-28T07:47:01;27.33;;;14.45;;
48911;SDS011;34722;52.108;5.044;2023-07-28T07:53:10;24.45;;;14.43;;
48911;SDS011;34722;52.108;5.044;2023-07-28T07:55:36;25.73;;;13.90;;
48911;SDS011;34722;52.108;5.044;2023-07-28T07:58:03;26.30;;;14.27;;
48911;SDS011;34722;52.108;5.044;2023-07-28T08:00:28;24.67;;;14.60;;
48911;SDS011;34722;52.108;5.044;2023-07-28T08:02:54;21.60;;;13.05;;
48911;SDS011;34722;52.108;5.044;2023-07-28T08:05:20;20.95;;;12.15;;
48911;SDS011;34722;52.108;5.044;2023-07-28T08:07:47;20.83;;;13.45;;
48911;SDS011;34722;52.108;5.044;2023-07-28T08:10:15;19.85;;;11.95;;
48911;SDS011;34722;52.108;5.044;2023-07-28T08:12:43;17.13;;;12.48;;
48911;SDS011;34722;52.108;5.044;2023-07-28T08:15:13;16.25;;;11.35;;
48911;SDS011;34722;52.108;5.044;2023-07-28T08:17:45;15.73;;;11.82;;
48911;SDS011;34722;52.108;5.044;2023-07-28T08:20:12;15.50;;;10.60;;
48911;SDS011;34722;52.108;5.044;2023-07-28T08:22:38;15.82;;;11.02;;
48911;SDS011;34722;52.108;5.044;2023-07-28T08:25:05;14.68;;;11.57;;
48911;SDS011;34722;52.108;5.044;2023-07-28T08:27:31;16.67;;;11.70;;
48911;SDS011;34722;52.108;5.044;2023-07-28T08:29:57;17.58;;;11.90;;
48911;SDS011;34722;52.108;5.044;2023-07-28T08:32:23;17.60;;;12.02;;
48911;SDS011;34722;52.108;5.044;2023-07-28T08:34:49;15.40;;;11.52;;
48911;SDS011;34722;52.108;5.044;2023-07-28T08:37:16;16.60;;;11.65;;
48911;SDS011;34722;52.108;5.044;2023-07-28T08:39:45;13.40;;;10.88;;
48911;SDS011;34722;52.108;5.044;2023-07-28T08:42:11;15.05;;;10.60;;
48911;SDS011;34722;52.108;5.044;2023-07-28T08:44:37;13.48;;;10.40;;
48911;SDS011;34722;52.108;5.044;2023-07-28T08:47:03;14.20;;;8.95;;
48911;SDS011;34722;52.108;5.044;2023-07-28T08:49:30;10.88;;;8.88;;
48911;SDS011;34722;52.108;5.044;2023-07-28T08:52:16;12.68;;;8.15;;
48911;SDS011;34722;52.108;5.044;2023-07-28T08:54:43;10.25;;;6.85;;
48911;SDS011;34722;52.108;5.044;2023-07-28T08:57:09;14.57;;;8.88;;
48911;SDS011;34722;52.108;5.044;2023-07-28T08:59:35;10.63;;;7.70;;
48911;SDS011;34722;52.108;5.044;2023-07-28T09:02:03;10.15;;;6.47;;
48911;SDS011;34722;52.108;5.044;2023-07-28T09:04:32;11.35;;;7.30;;
48911;SDS011;34722;52.108;5.044;2023-07-28T09:06:58;9.75;;;7.00;;
48911;SDS011;34722;52.108;5.044;2023-07-28T09:09:24;8.63;;;6.75;;
48911;SDS011;34722;52.108;5.044;2023-07-28T09:11:56;12.30;;;8.68;;
48911;SDS011;34722;52.108;5.044;2023-07-28T09:14:23;9.15;;;6.80;;
48911;SDS011;34722;52.108;5.044;2023-07-28T09:16:49;11.13;;;7.15;;
48911;SDS011;34722;52.108;5.044;2023-07-28T09:19:15;8.90;;;7.20;;
48911;SDS011;34722;52.108;5.044;2023-07-28T09:24:30;11.20;;;7.63;;
48911;SDS011;34722;52.108;5.044;2023-07-28T09:26:58;8.00;;;6.32;;
48911;SDS011;34722;52.108;5.044;2023-07-28T09:29:27;11.57;;;7.95;;
48911;SDS011;34722;52.108;5.044;2023-07-28T09:32:03;8.52;;;7.57;;
48911;SDS011;34722;52.108;5.044;2023-07-28T09:34:29;9.15;;;6.65;;
48911;SDS011;34722;52.108;5.044;2023-07-28T09:37:04;8.13;;;6.80;;
48911;SDS011;34722;52.108;5.044;2023-07-28T09:39:32;8.32;;;6.95;;
48911;SDS011;34722;52.108;5.044;2023-07-28T09:42:01;10.00;;;6.57;;
48911;SDS011;34722;52.108;5.044;2023-07-28T09:44:27;10.73;;;7.22;;
48911;SDS011;34722;52.108;5.044;2023-07-28T09:46:53;10.65;;;7.13;;
48911;SDS011;34722;52.108;5.044;2023-07-28T09:49:27;10.15;;;6.90;;
48911;SDS011;34722;52.108;5.044;2023-07-28T09:52:08;9.65;;;6.68;;
48911;SDS011;34722;52.108;5.044;2023-07-28T09:54:44;12.50;;;7.25;;
48911;SDS011;34722;52.108;5.044;2023-07-28T09:57:33;13.10;;;7.85;;
48911;SDS011;34722;52.108;5.044;2023-07-28T10:00:14;9.68;;;8.27;;
48911;SDS011;34722;52.108;5.044;2023-07-28T10:02:42;16.55;;;9.05;;
48911;SDS011;34722;52.108;5.044;2023-07-28T10:05:11;10.52;;;8.23;;
48911;SDS011;34722;52.108;5.044;2023-07-28T10:07:41;11.90;;;8.55;;
48911;SDS011;34722;52.108;5.044;2023-07-28T10:10:09;10.27;;;9.27;;
48911;SDS011;34722;52.108;5.044;2023-07-28T10:15:14;13.60;;;8.50;;
48911;SDS011;34722;52.108;5.044;2023-07-28T10:17:47;12.15;;;8.55;;
48911;SDS011;34722;52.108;5.044;2023-07-28T10:22:52;13.95;;;9.57;;
48911;SDS011;34722;52.108;5.044;2023-07-28T10:25:22;12.43;;;9.43;;
48911;SDS011;34722;52.108;5.044;2023-07-28T10:27:50;12.00;;;9.20;;
48911;SDS011;34722;52.108;5.044;2023-07-28T10:30:16;11.80;;;10.40;;
48911;SDS011;34722;52.108;5.044;2023-07-28T10:32:43;12.15;;;9.32;;
48911;SDS011;34722;52.108;5.044;2023-07-28T10:37:45;9.50;;;7.80;;
48911;SDS011;34722;52.108;5.044;2023-07-28T10:42:56;9.27;;;7.60;;
48911;SDS011;34722;52.108;5.044;2023-07-28T10:45:24;10.82;;;7.85;;
48911;SDS011;34722;52.108;5.044;2023-07-28T10:47:52;9.57;;;7.03;;
48911;SDS011;34722;52.108;5.044;2023-07-28T10:50:25;12.87;;;8.00;;
48911;SDS011;34722;52.108;5.044;2023-07-28T10:52:53;12.43;;;7.80;;
48911;SDS011;34722;52.108;5.044;2023-07-28T10:55:20;10.60;;;7.95;;
48911;SDS011;34722;52.108;5.044;2023-07-28T10:57:50;8.75;;;7.35;;
48911;SDS011;34722;52.108;5.044;2023-07-28T11:00:20;9.65;;;6.93;;
48911;SDS011;34722;52.108;5.044;2023-07-28T11:02:48;10.98;;;7.55;;
48911;SDS011;34722;52.108;5.044;2023-07-28T11:05:19;9.48;;;7.72;;
48911;SDS011;34722;52.108;5.044;2023-07-28T11:07:56;11.05;;;8.52;;
48911;SDS011;34722;52.108;5.044;2023-07-28T11:10:22;9.35;;;5.57;;
48911;SDS011;34722;52.108;5.044;2023-07-28T11:12:49;10.40;;;6.00;;
48911;SDS011;34722;52.108;5.044;2023-07-28T11:15:17;13.27;;;5.43;;
48911;SDS011;34722;52.108;5.044;2023-07-28T11:17:47;11.80;;;5.85;;
48911;SDS011;34722;52.108;5.044;2023-07-28T11:20:18;7.45;;;5.82;;
48911;SDS011;34722;52.108;5.044;2023-07-28T11:22:46;10.60;;;6.60;;
48911;SDS011;34722;52.108;5.044;2023-07-28T11:25:20;10.88;;;5.70;;
48911;SDS011;34722;52.108;5.044;2023-07-28T11:27:50;12.83;;;6.90;;
48911;SDS011;34722;52.108;5.044;2023-07-28T11:30:16;8.80;;;6.88;;
48911;SDS011;34722;52.108;5.044;2023-07-28T11:32:44;11.10;;;7.40;;
48911;SDS011;34722;52.108;5.044;2023-07-28T11:35:11;10.25;;;6.95;;
48911;SDS011;34722;52.108;5.044;2023-07-28T11:37:39;8.75;;;6.10;;
48911;SDS011;34722;52.108;5.044;2023-07-28T11:40:06;16.50;;;6.85;;
48911;SDS011;34722;52.108;5.044;2023-07-28T11:42:39;8.63;;;6.72;;
48911;SDS011;34722;52.108;5.044;2023-07-28T11:45:07;10.85;;;7.32;;
48911;SDS011;34722;52.108;5.044;2023-07-28T11:47:34;11.90;;;6.68;;
48911;SDS011;34722;52.108;5.044;2023-07-28T11:50:01;10.10;;;5.90;;
48911;SDS011;34722;52.108;5.044;2023-07-28T11:52:31;9.35;;;5.85;;
48911;SDS011;34722;52.108;5.044;2023-07-28T11:55:01;8.68;;;6.32;;
48911;SDS011;34722;52.108;5.044;2023-07-28T11:57:33;14.00;;;7.07;;
48911;SDS011;34722;52.108;5.044;2023-07-28T12:00:03;9.63;;;8.13;;
48911;SDS011;34722;52.108;5.044;2023-07-28T12:02:31;10.55;;;8.20;;
48911;SDS011;34722;52.108;5.044;2023-07-28T12:04:58;10.18;;;7.53;;
48911;SDS011;34722;52.108;5.044;2023-07-28T12:07:28;9.15;;;6.82;;
48911;SDS011;34722;52.108;5.044;2023-07-28T12:10:03;6.93;;;6.20;;
48911;SDS011;34722;52.108;5.044;2023-07-28T12:12:55;9.07;;;6.85;;
48911;SDS011;34722;52.108;5.044;2023-07-28T12:15:28;5.95;;;5.35;;
48911;SDS011;34722;52.108;5.044;2023-07-28T12:23:01;8.45;;;5.78;;
48911;SDS011;34722;52.108;5.044;2023-07-28T12:25:27;5.90;;;5.18;;
48911;SDS011;34722;52.108;5.044;2023-07-28T12:27:54;10.05;;;6.35;;
48911;SDS011;34722;52.108;5.044;2023-07-28T12:30:20;9.30;;;5.90;;
48911;SDS011;34722;52.108;5.044;2023-07-28T12:32:46;9.85;;;5.97;;
48911;SDS011;34722;52.108;5.044;2023-07-28T12:35:12;7.28;;;5.53;;
48911;SDS011;34722;52.108;5.044;2023-07-28T12:37:38;6.30;;;5.47;;
48911;SDS011;34722;52.108;5.044;2023-07-28T12:40:04;6.63;;;6.05;;
48911;SDS011;34722;52.108;5.044;2023-07-28T12:42:31;8.88;;;6.47;;
48911;SDS011;34722;52.108;5.044;2023-07-28T12:44:57;7.78;;;5.53;;
48911;SDS011;34722;52.108;5.044;2023-07-28T12:47:23;7.15;;;5.82;;
48911;SDS011;34722;52.108;5.044;2023-07-28T12:49:49;9.90;;;6.07;;
48911;SDS011;34722;52.108;5.044;2023-07-28T12:52:14;9.60;;;5.13;;
48911;SDS011;34722;52.108;5.044;2023-07-28T12:54:40;8.05;;;6.05;;
48911;SDS011;34722;52.108;5.044;2023-07-28T12:57:08;5.18;;;4.72;;
48911;SDS011;34722;52.108;5.044;2023-07-28T12:59:35;6.07;;;4.95;;
48911;SDS011;34722;52.108;5.044;2023-07-28T13:02:04;5.20;;;4.72;;
48911;SDS011;34722;52.108;5.044;2023-07-28T13:04:33;9.65;;;5.68;;
48911;SDS011;34722;52.108;5.044;2023-07-28T13:06:58;6.13;;;5.25;;
48911;SDS011;34722;52.108;5.044;2023-07-28T13:09:27;5.40;;;4.88;;
48911;SDS011;34722;52.108;5.044;2023-07-28T13:11:53;6.93;;;5.47;;
48911;SDS011;34722;52.108;5.044;2023-07-28T13:14:22;5.57;;;5.18;;
48911;SDS011;34722;52.108;5.044;2023-07-28T13:16:51;5.85;;;4.50;;
48911;SDS011;34722;52.108;5.044;2023-07-28T13:19:17;8.13;;;4.63;;
48911;SDS011;34722;52.108;5.044;2023-07-28T13:21:42;8.65;;;4.82;;
48911;SDS011;34722;52.108;5.044;2023-07-28T13:24:08;9.63;;;5.55;;
48911;SDS011;34722;52.108;5.044;2023-07-28T13:26:33;6.38;;;5.68;;
48911;SDS011;34722;52.108;5.044;2023-07-28T13:29:02;9.57;;;5.80;;
48911;SDS011;34722;52.108;5.044;2023-07-28T13:31:28;7.57;;;5.97;;
48911;SDS011;34722;52.108;5.044;2023-07-28T13:33:53;8.50;;;5.82;;
48911;SDS011;34722;52.108;5.044;2023-07-28T13:36:22;6.57;;;5.47;;
48911;SDS011;34722;52.108;5.044;2023-07-28T13:38:47;6.53;;;5.80;;
48911;SDS011;34722;52.108;5.044;2023-07-28T13:41:14;9.23;;;6.53;;
48911;SDS011;34722;52.108;5.044;2023-07-28T13:43:49;8.70;;;7.65;;
48911;SDS011;34722;52.108;5.044;2023-07-28T13:46:18;8.25;;;6.82;;
48911;SDS011;34722;52.108;5.044;2023-07-28T13:48:43;12.02;;;8.05;;
48911;SDS011;34722;52.108;5.044;2023-07-28T13:51:09;11.70;;;8.32;;
48911;SDS011;34722;52.108;5.044;2023-07-28T13:53:35;13.73;;;8.23;;
48911;SDS011;34722;52.108;5.044;2023-07-28T13:56:01;11.85;;;8.00;;
48911;SDS011;34722;52.108;5.044;2023-07-28T13:58:27;10.45;;;7.68;;
48911;SDS011;34722;52.108;5.044;2023-07-28T14:00:52;9.32;;;8.07;;
48911;SDS011;34722;52.108;5.044;2023-07-28T14:03:18;12.15;;;8.07;;
48911;SDS011;34722;52.108;5.044;2023-07-28T14:05:44;9.40;;;8.25;;
48911;SDS011;34722;52.108;5.044;2023-07-28T14:08:12;8.90;;;8.00;;
48911;SDS011;34722;52.108;5.044;2023-07-28T14:10:37;12.32;;;8.75;;
48911;SDS011;34722;52.108;5.044;2023-07-28T14:13:04;10.18;;;8.15;;
48911;SDS011;34722;52.108;5.044;2023-07-28T14:15:29;10.48;;;8.50;;
48911;SDS011;34722;52.108;5.044;2023-07-28T14:17:55;12.18;;;9.00;;
48911;SDS011;34722;52.108;5.044;2023-07-28T14:20:21;10.85;;;7.82;;
48911;SDS011;34722;52.108;5.044;2023-07-28T14:22:47;8.93;;;7.75;;
48911;SDS011;34722;52.108;5.044;2023-07-28T14:25:13;13.20;;;8.25;;
48911;SDS011;34722;52.108;5.044;2023-07-28T14:27:41;9.15;;;7.68;;
48911;SDS011;34722;52.108;5.044;2023-07-28T14:30:10;18.60;;;10.60;;
48911;SDS011;34722;52.108;5.044;2023-07-28T14:32:36;15.43;;;11.30;;
48911;SDS011;34722;52.108;5.044;2023-07-28T14:35:02;17.17;;;12.38;;
48911;SDS011;34722;52.108;5.044;2023-07-28T14:37:30;18.88;;;13.30;;
48911;SDS011;34722;52.108;5.044;2023-07-28T14:39:59;21.45;;;14.50;;
48911;SDS011;34722;52.108;5.044;2023-07-28T14:42:33;19.25;;;13.52;;
48911;SDS011;34722;52.108;5.044;2023-07-28T14:45:17;18.05;;;12.45;;
48911;SDS011;34722;52.108;5.044;2023-07-28T14:47:45;17.77;;;13.75;;
48911;SDS011;34722;52.108;5.044;2023-07-28T14:50:11;20.80;;;13.73;;
48911;SDS011;34722;52.108;5.044;2023-07-28T14:52:39;19.17;;;13.07;;
48911;SDS011;34722;52.108;5.044;2023-07-28T14:55:05;16.88;;;13.10;;
48911;SDS011;34722;52.108;5.044;2023-07-28T14:57:31;16.70;;;12.43;;
48911;SDS011;34722;52.108;5.044;2023-07-28T14:59:57;19.52;;;12.65;;
48911;SDS011;34722;52.108;5.044;2023-07-28T15:02:22;18.52;;;12.90;;
48911;SDS011;34722;52.108;5.044;2023-07-28T15:04:48;18.70;;;12.52;;
48911;SDS011;34722;52.108;5.044;2023-07-28T15:07:17;14.82;;;11.35;;
48911;SDS011;34722;52.108;5.044;2023-07-28T15:09:44;21.08;;;11.05;;
48911;SDS011;34722;52.108;5.044;2023-07-28T15:12:09;13.25;;;10.45;;
48911;SDS011;34722;52.108;5.044;2023-07-28T15:14:35;16.13;;;11.77;;
48911;SDS011;34722;52.108;5.044;2023-07-28T15:17:01;14.10;;;11.60;;
48911;SDS011;34722;52.108;5.044;2023-07-28T15:19:26;18.30;;;12.13;;
48911;SDS011;34722;52.108;5.044;2023-07-28T15:21:52;20.38;;;12.65;;
48911;SDS011;34722;52.108;5.044;2023-07-28T15:24:18;19.17;;;13.00;;
48911;SDS011;34722;52.108;5.044;2023-07-28T15:26:46;17.00;;;12.85;;
48911;SDS011;34722;52.108;5.044;2023-07-28T15:29:14;16.88;;;13.10;;
48911;SDS011;34722;52.108;5.044;2023-07-28T15:31:40;17.50;;;12.20;;
48911;SDS011;34722;52.108;5.044;2023-07-28T21:38:05;4.57;;;2.50;;
48911;SDS011;34722;52.108;5.044;2023-07-28T21:40:34;4.30;;;2.15;;
48911;SDS011;34722;52.108;5.044;2023-07-28T21:43:00;6.13;;;2.25;;
48911;SDS011;34722;52.108;5.044;2023-07-28T21:45:30;4.10;;;2.05;;
48911;SDS011;34722;52.108;5.044;2023-07-28T21:51:22;3.53;;;2.07;;
48911;SDS011;34722;52.108;5.044;2023-07-28T21:53:48;3.50;;;2.00;;
48911;SDS011;34722;52.108;5.044;2023-07-28T21:56:16;10.00;;;4.15;;
48911;SDS011;34722;52.108;5.044;2023-07-28T21:58:43;3.13;;;2.15;;
48911;SDS011;34722;52.108;5.044;2023-07-28T22:01:28;5.00;;;2.00;;
48911;SDS011;34722;52.108;5.044;2023-07-28T22:03:56;3.78;;;2.63;;
48911;SDS011;34722;52.108;5.044;2023-07-28T22:06:22;2.63;;;2.00;;
48911;SDS011;34722;52.108;5.044;2023-07-28T22:08:52;6.45;;;2.20;;
48911;SDS011;34722;52.108;5.044;2023-07-28T22:11:18;3.00;;;1.73;;
48911;SDS011;34722;52.108;5.044;2023-07-28T22:13:45;4.63;;;2.15;;
48911;SDS011;34722;52.108;5.044;2023-07-28T22:16:10;5.40;;;2.03;;
48911;SDS011;34722;52.108;5.044;2023-07-28T22:18:37;2.00;;;1.60;;
48911;SDS011;34722;52.108;5.044;2023-07-28T22:21:03;6.43;;;2.25;;
48911;SDS011;34722;52.108;5.044;2023-07-28T22:23:29;4.80;;;2.10;;
48911;SDS011;34722;52.108;5.044;2023-07-28T22:25:56;4.53;;;2.00;;
48911;SDS011;34722;52.108;5.044;2023-07-28T22:28:23;5.63;;;1.88;;
48911;SDS011;34722;52.108;5.044;2023-07-28T22:30:49;6.57;;;2.15;;
48911;SDS011;34722;52.108;5.044;2023-07-28T22:33:16;5.97;;;1.85;;
48911;SDS011;34722;52.108;5.044;2023-07-28T22:35:43;5.13;;;2.17;;
48911;SDS011;34722;52.108;5.044;2023-07-28T22:38:11;4.22;;;2.17;;
48911;SDS011;34722;52.108;5.044;2023-07-28T22:40:38;5.88;;;2.30;;
48911;SDS011;34722;52.108;5.044;2023-07-28T22:46:02;6.57;;;2.03;;
48911;SDS011;34722;52.108;5.044;2023-07-28T22:48:49;6.68;;;2.03;;
48911;SDS011;34722;52.108;5.044;2023-07-28T22:51:15;3.20;;;2.10;;
48911;SDS011;34722;52.108;5.044;2023-07-28T22:53:42;4.25;;;2.22;;
48911;SDS011;34722;52.108;5.044;2023-07-28T22:56:09;4.90;;;2.25;;
48911;SDS011;34722;52.108;5.044;2023-07-28T22:58:35;5.70;;;1.80;;
